Time;durP1;ratioP1;P1;durP2;ratioP2;P2;SDS_P1;SDS_P2;PMS_P1;PMS_P2;Temp;Humidity;BMP_temperature;BMP_pressure;BME280_temperature;BME280_humidity;BME280_pressure;Samples;Min_cycle;Max_cycle;Signal;HPM_P1;HPM_P2
2021/05/30 00:02:16;;;;;;;13.75;9.90;;;;;;;;;;5096460;28;20020;-68
2021/05/30 00:04:42;;;;;;;15.63;9.15;;;;;;;;;;5096302;28;20038;-68
2021/05/30 00:07:08;;;;;;;11.75;8.20;;;;;;;;;;5096125;28;20032;-68
2021/05/30 00:09:34;;;;;;;10.93;8.25;;;;;;;;;;5096221;28;20020;-68
2021/05/30 00:12:01;;;;;;;13.13;8.05;;;;;;;;;;5096344;28;20051;-68
2021/05/30 00:14:27;;;;;;;13.35;8.70;;;;;;;;;;5107628;28;20046;-68
2021/05/30 00:16:53;;;;;;;13.18;8.65;;;;;;;;;;5116448;28;20054;-67
2021/05/30 00:19:19;;;;;;;10.77;9.32;;;;;;;;;;5116430;28;20024;-67
2021/05/30 00:21:45;;;;;;;14.27;9.32;;;;;;;;;;5116396;28;20040;-68
2021/05/30 00:24:12;;;;;;;14.07;8.43;;;;;;;;;;5116283;28;20028;-69
2021/05/30 00:26:38;;;;;;;15.80;9.48;;;;;;;;;;5116159;28;20465;-67
2021/05/30 00:29:04;;;;;;;12.45;9.52;;;;;;;;;;5103798;28;20111;-68
2021/05/30 00:31:30;;;;;;;17.10;9.50;;;;;;;;;;5095899;28;20095;-68
2021/05/30 00:33:56;;;;;;;16.20;10.00;;;;;;;;;;5095738;28;20020;-69
2021/05/30 00:36:22;;;;;;;16.00;11.68;;;;;;;;;;5095826;28;20024;-68
2021/05/30 00:38:48;;;;;;;13.43;10.00;;;;;;;;;;5115084;28;20024;-68
2021/05/30 00:41:15;;;;;;;14.63;10.25;;;;;;;;;;5115895;28;20420;-68
2021/05/30 00:43:44;;;;;;;14.68;10.60;;;;;;;;;;5116011;28;20053;-68
2021/05/30 00:46:10;;;;;;;13.15;9.85;;;;;;;;;;5115580;28;20020;-68
2021/05/30 00:48:37;;;;;;;13.57;9.85;;;;;;;;;;5115830;28;20024;-68
2021/05/30 00:51:03;;;;;;;13.95;9.55;;;;;;;;;;5116114;28;20023;-68
2021/05/30 00:53:30;;;;;;;14.73;10.13;;;;;;;;;;5116136;28;20024;-68
2021/05/30 00:55:56;;;;;;;14.52;9.70;;;;;;;;;;5115560;28;20097;-67
2021/05/30 00:58:23;;;;;;;16.00;9.82;;;;;;;;;;5115819;28;20031;-68
2021/05/30 01:00:49;;;;;;;13.23;9.32;;;;;;;;;;5115786;28;20016;-68
2021/05/30 01:03:15;;;;;;;13.23;9.75;;;;;;;;;;5114724;28;20416;-69
2021/05/30 01:05:41;;;;;;;14.77;10.98;;;;;;;;;;5115592;28;20019;-68
2021/05/30 01:08:09;;;;;;;14.07;9.43;;;;;;;;;;5115542;28;20030;-69
2021/05/30 01:10:37;;;;;;;14.50;10.02;;;;;;;;;;5115336;28;20099;-67
2021/05/30 01:13:04;;;;;;;13.57;10.25;;;;;;;;;;5113055;28;20078;-68
2021/05/30 01:15:32;;;;;;;16.30;10.38;;;;;;;;;;5094827;28;20071;-68
2021/05/30 01:17:59;;;;;;;18.40;10.27;;;;;;;;;;5094997;28;20485;-68
2021/05/30 01:20:26;;;;;;;14.95;10.32;;;;;;;;;;5095477;28;20020;-68
2021/05/30 01:22:52;;;;;;;17.27;10.50;;;;;;;;;;5094857;28;20066;-68
2021/05/30 01:25:22;;;;;;;15.75;10.30;;;;;;;;;;5094664;28;20032;-68
2021/05/30 01:27:50;;;;;;;11.65;10.02;;;;;;;;;;5094731;28;20059;-68
2021/05/30 01:30:17;;;;;;;13.68;11.05;;;;;;;;;;5094700;28;20028;-68
2021/05/30 01:32:44;;;;;;;16.48;11.82;;;;;;;;;;5094647;28;20103;-68
2021/05/30 01:35:10;;;;;;;16.77;11.95;;;;;;;;;;5094554;28;20534;-68
2021/05/30 01:37:36;;;;;;;16.38;11.40;;;;;;;;;;5104591;28;20023;-68
2021/05/30 01:40:03;;;;;;;19.13;11.48;;;;;;;;;;5114785;28;20022;-67
2021/05/30 01:42:29;;;;;;;16.33;11.90;;;;;;;;;;5114870;28;20023;-68
2021/05/30 01:44:55;;;;;;;17.08;11.82;;;;;;;;;;5114793;28;20031;-68
2021/05/30 01:47:21;;;;;;;15.13;10.90;;;;;;;;;;5114716;28;20031;-67
2021/05/30 01:49:48;;;;;;;15.27;11.38;;;;;;;;;;5114771;28;20495;-68
2021/05/30 01:52:14;;;;;;;15.82;10.85;;;;;;;;;;5114628;28;20032;-67
2021/05/30 01:54:47;;;;;;;14.57;10.77;;;;;;;;;;5096859;28;20099;-68
2021/05/30 01:57:14;;;;;;;13.18;10.32;;;;;;;;;;5094118;28;20028;-67
2021/05/30 01:59:43;;;;;;;15.95;10.25;;;;;;;;;;5094190;28;20056;-68
2021/05/30 02:02:09;;;;;;;17.02;11.00;;;;;;;;;;5094026;28;20023;-68
2021/05/30 02:04:39;;;;;;;17.88;11.10;;;;;;;;;;5094208;28;20378;-68
2021/05/30 02:07:05;;;;;;;17.73;10.00;;;;;;;;;;5094063;28;20058;-68
2021/05/30 02:09:31;;;;;;;19.45;10.88;;;;;;;;;;5093174;28;20080;-68
2021/05/30 02:11:58;;;;;;;15.25;10.80;;;;;;;;;;5113428;28;20046;-68
2021/05/30 02:14:25;;;;;;;15.95;11.00;;;;;;;;;;5114012;28;20032;-68
2021/05/30 02:16:51;;;;;;;12.82;10.65;;;;;;;;;;5114111;28;20031;-68
2021/05/30 02:19:17;;;;;;;14.70;10.23;;;;;;;;;;5114093;28;20019;-67
2021/05/30 02:21:47;;;;;;;15.50;10.43;;;;;;;;;;5114121;28;20031;-68
2021/05/30 02:24:15;;;;;;;14.88;11.68;;;;;;;;;;5113969;28;20090;-68
2021/05/30 02:26:41;;;;;;;14.57;11.00;;;;;;;;;;5113206;28;20047;-67
2021/05/30 02:29:08;;;;;;;14.80;11.05;;;;;;;;;;5113842;28;20034;-67
2021/05/30 02:31:34;;;;;;;16.48;10.80;;;;;;;;;;5114275;28;20466;-68
2021/05/30 02:34:00;;;;;;;16.05;10.82;;;;;;;;;;5127848;27;20534;-68
2021/05/30 02:36:27;;;;;;;17.92;11.75;;;;;;;;;;5125989;27;20024;-68
2021/05/30 02:38:54;;;;;;;15.60;11.63;;;;;;;;;;5113992;28;20045;-68
2021/05/30 02:41:20;;;;;;;18.08;11.90;;;;;;;;;;5113718;28;20023;-66
2021/05/30 02:43:48;;;;;;;16.73;11.95;;;;;;;;;;5113192;28;20023;-68
2021/05/30 02:46:14;;;;;;;16.15;11.93;;;;;;;;;;5113688;28;20103;-70
2021/05/30 02:48:40;;;;;;;17.63;11.55;;;;;;;;;;5113001;28;20024;-67
2021/05/30 02:51:06;;;;;;;17.92;12.52;;;;;;;;;;5113587;28;20024;-68
2021/05/30 02:53:33;;;;;;;19.77;12.65;;;;;;;;;;5113506;28;20024;-66
2021/05/30 02:56:00;;;;;;;16.02;11.98;;;;;;;;;;5113497;28;20023;-67
2021/05/30 02:58:28;;;;;;;17.30;11.23;;;;;;;;;;5113307;28;20055;-68
2021/05/30 03:00:55;;;;;;;16.40;11.02;;;;;;;;;;5112512;28;20032;-68
2021/05/30 03:03:21;;;;;;;17.38;12.30;;;;;;;;;;5113215;28;20098;-68
2021/05/30 03:05:47;;;;;;;19.48;12.57;;;;;;;;;;5113290;28;20028;-68
2021/05/30 03:08:13;;;;;;;18.05;12.60;;;;;;;;;;5113219;28;20510;-68
2021/05/30 03:10:39;;;;;;;18.27;12.98;;;;;;;;;;5113287;28;20027;-68
2021/05/30 03:13:05;;;;;;;21.35;13.15;;;;;;;;;;5112897;28;20513;-66
2021/05/30 03:15:31;;;;;;;18.77;13.32;;;;;;;;;;5113045;28;20039;-67
2021/05/30 03:17:57;;;;;;;17.48;12.73;;;;;;;;;;5112064;28;20227;-67
2021/05/30 03:20:23;;;;;;;20.85;14.20;;;;;;;;;;5112863;28;20034;-67
2021/05/30 03:22:50;;;;;;;18.58;13.43;;;;;;;;;;5112355;28;20024;-67
2021/05/30 03:25:16;;;;;;;17.33;12.57;;;;;;;;;;5113303;28;20050;-67
2021/05/30 03:27:42;;;;;;;18.02;11.75;;;;;;;;;;5113012;28;20023;-67
2021/05/30 03:30:09;;;;;;;17.75;11.75;;;;;;;;;;5112808;28;20127;-67
2021/05/30 03:32:35;;;;;;;20.10;13.10;;;;;;;;;;5112911;28;20058;-68
2021/05/30 03:35:02;;;;;;;16.35;12.52;;;;;;;;;;5109186;28;20052;-68
2021/05/30 03:37:28;;;;;;;20.05;12.65;;;;;;;;;;5109083;28;20024;-68
2021/05/30 03:39:58;;;;;;;17.83;12.90;;;;;;;;;;5112875;28;20094;-69
2021/05/30 03:42:28;;;;;;;18.25;11.65;;;;;;;;;;5112800;28;20051;-69
2021/05/30 03:44:58;;;;;;;20.60;12.05;;;;;;;;;;5112864;28;20106;-67
2021/05/30 03:47:24;;;;;;;17.30;11.75;;;;;;;;;;5112753;28;20023;-67
2021/05/30 03:49:50;;;;;;;19.48;14.20;;;;;;;;;;5112754;28;20031;-68
2021/05/30 03:52:16;;;;;;;20.10;13.07;;;;;;;;;;5106941;28;20103;-68
2021/05/30 03:54:42;;;;;;;20.98;13.27;;;;;;;;;;5092236;28;20545;-68
2021/05/30 03:57:09;;;;;;;18.13;12.50;;;;;;;;;;5092275;28;20028;-69
2021/05/30 03:59:35;;;;;;;17.50;11.80;;;;;;;;;;5092418;28;20031;-66
2021/05/30 04:02:01;;;;;;;18.15;13.30;;;;;;;;;;5092195;28;20090;-67
2021/05/30 04:04:27;;;;;;;18.10;12.27;;;;;;;;;;5092209;28;20161;-66
2021/05/30 04:06:53;;;;;;;19.40;13.38;;;;;;;;;;5092510;28;20107;-68
2021/05/30 04:09:20;;;;;;;17.05;12.13;;;;;;;;;;5092746;28;20024;-67
2021/05/30 04:11:46;;;;;;;17.52;11.55;;;;;;;;;;5092040;28;20097;-68
2021/05/30 04:14:12;;;;;;;17.35;12.13;;;;;;;;;;5101470;28;20402;-67
2021/05/30 04:16:38;;;;;;;17.15;11.15;;;;;;;;;;5112543;28;20016;-68
2021/05/30 04:19:04;;;;;;;15.23;10.55;;;;;;;;;;5112517;28;20016;-68
2021/05/30 04:21:30;;;;;;;16.25;11.32;;;;;;;;;;5112371;28;20023;-68
2021/05/30 04:23:56;;;;;;;19.60;13.02;;;;;;;;;;5112629;28;20052;-67
2021/05/30 04:26:22;;;;;;;19.30;12.27;;;;;;;;;;5106050;28;20024;-68
2021/05/30 04:28:48;;;;;;;16.05;12.18;;;;;;;;;;5091901;28;20103;-68
2021/05/30 04:31:14;;;;;;;17.88;12.30;;;;;;;;;;5092029;28;20051;-69
2021/05/30 04:33:40;;;;;;;19.13;12.65;;;;;;;;;;5076329;28;20020;-68
2021/05/30 04:36:06;;;;;;;21.13;13.77;;;;;;;;;;5114393;28;20024;-68
2021/05/30 04:38:32;;;;;;;19.15;13.45;;;;;;;;;;5116077;28;20060;-68
2021/05/30 04:41:00;;;;;;;23.95;15.50;;;;;;;;;;5116072;28;20538;-68
2021/05/30 04:43:26;;;;;;;20.60;13.00;;;;;;;;;;5108665;28;20059;-68
2021/05/30 04:45:53;;;;;;;23.45;13.50;;;;;;;;;;5095564;28;20126;-68
2021/05/30 04:48:19;;;;;;;20.38;13.55;;;;;;;;;;5077395;28;20068;-67
2021/05/30 04:51:05;;;;;;;21.65;13.98;;;;;;;;;;5095410;28;20115;-68
2021/05/30 04:53:31;;;;;;;20.20;12.75;;;;;;;;;;5095655;28;20042;-67
2021/05/30 04:56:00;;;;;;;23.25;12.80;;;;;;;;;;5095278;28;20028;-68
2021/05/30 04:58:26;;;;;;;19.33;12.48;;;;;;;;;;5095234;28;20490;-68
2021/05/30 05:00:53;;;;;;;16.88;12.00;;;;;;;;;;5095884;28;20016;-69
2021/05/30 05:03:19;;;;;;;21.60;11.48;;;;;;;;;;5095223;28;20383;-67
2021/05/30 05:05:45;;;;;;;19.48;12.82;;;;;;;;;;5095278;28;20073;-68
2021/05/30 05:08:11;;;;;;;17.38;12.27;;;;;;;;;;5095190;28;20020;-68
2021/05/30 05:10:37;;;;;;;18.75;12.82;;;;;;;;;;5095102;28;20368;-68
2021/05/30 05:13:03;;;;;;;18.73;12.55;;;;;;;;;;5094807;28;20047;-69
2021/05/30 05:15:29;;;;;;;20.52;12.73;;;;;;;;;;5103989;28;20035;-68
2021/05/30 05:17:55;;;;;;;18.13;12.07;;;;;;;;;;5114651;28;20375;-68
2021/05/30 05:20:21;;;;;;;16.23;10.45;;;;;;;;;;5115270;28;20031;-67
2021/05/30 05:22:47;;;;;;;17.08;10.93;;;;;;;;;;5115223;28;20500;-67
2021/05/30 05:25:13;;;;;;;20.35;12.35;;;;;;;;;;5095740;28;20028;-68
2021/05/30 05:27:39;;;;;;;15.77;10.73;;;;;;;;;;5095837;28;20035;-67
2021/05/30 05:30:06;;;;;;;20.80;11.80;;;;;;;;;;5095209;28;20085;-68
2021/05/30 05:32:32;;;;;;;19.58;11.52;;;;;;;;;;5092731;28;20107;-68
2021/05/30 05:34:58;;;;;;;14.93;10.65;;;;;;;;;;5103971;28;20398;-67
2021/05/30 05:37:24;;;;;;;17.58;10.85;;;;;;;;;;5096810;28;20032;-67
2021/05/30 05:39:50;;;;;;;14.38;10.40;;;;;;;;;;5092567;28;20027;-68
2021/05/30 05:42:16;;;;;;;14.57;9.98;;;;;;;;;;5092754;28;20036;-68
2021/05/30 05:44:42;;;;;;;13.68;9.95;;;;;;;;;;5108762;28;20040;-68
2021/05/30 05:47:08;;;;;;;14.30;9.32;;;;;;;;;;5112847;28;20744;-68
2021/05/30 05:49:34;;;;;;;14.18;9.85;;;;;;;;;;5112766;28;20024;-67
2021/05/30 05:52:01;;;;;;;14.52;10.15;;;;;;;;;;5108177;28;20033;-68
2021/05/30 05:54:27;;;;;;;13.30;9.60;;;;;;;;;;5106043;28;20482;-68
2021/05/30 05:56:53;;;;;;;13.98;9.10;;;;;;;;;;5103982;28;20028;-68
2021/05/30 05:59:19;;;;;;;12.20;9.50;;;;;;;;;;5098956;28;20098;-68
2021/05/30 06:01:45;;;;;;;14.05;10.77;;;;;;;;;;5112752;28;20039;-69
2021/05/30 06:04:11;;;;;;;16.00;10.13;;;;;;;;;;5095351;28;20024;-69
2021/05/30 06:06:37;;;;;;;15.40;9.75;;;;;;;;;;5094358;28;20031;-67
2021/05/30 06:09:03;;;;;;;14.27;10.20;;;;;;;;;;5095171;28;20033;-68
2021/05/30 06:11:29;;;;;;;15.57;9.80;;;;;;;;;;5108902;28;20043;-68
2021/05/30 06:13:55;;;;;;;13.40;9.57;;;;;;;;;;5106373;28;20355;-68
2021/05/30 06:16:23;;;;;;;16.00;10.45;;;;;;;;;;5104194;28;20149;-67
2021/05/30 06:18:49;;;;;;;12.00;9.75;;;;;;;;;;5093800;28;20406;-68
2021/05/30 06:21:15;;;;;;;11.88;8.85;;;;;;;;;;5097719;28;20471;-69
2021/05/30 06:23:41;;;;;;;12.25;8.85;;;;;;;;;;5097483;28;20063;-66
2021/05/30 06:26:10;;;;;;;11.75;9.50;;;;;;;;;;5097266;28;20031;-69
2021/05/30 06:28:36;;;;;;;13.75;9.55;;;;;;;;;;5093420;28;20024;-69
2021/05/30 06:31:03;;;;;;;13.55;9.40;;;;;;;;;;5098902;28;20094;-69
2021/05/30 06:33:29;;;;;;;11.25;9.00;;;;;;;;;;5101314;28;20024;-69
2021/05/30 06:35:55;;;;;;;11.88;9.23;;;;;;;;;;5107615;28;20016;-68
2021/05/30 06:38:21;;;;;;;11.48;8.02;;;;;;;;;;5103790;28;20022;-68
2021/05/30 06:40:47;;;;;;;12.15;8.10;;;;;;;;;;5096021;28;20031;-67
2021/05/30 06:43:13;;;;;;;12.13;8.48;;;;;;;;;;5099923;28;20024;-68
2021/05/30 06:45:39;;;;;;;11.25;8.57;;;;;;;;;;5093300;28;20020;-68
2021/05/30 06:48:06;;;;;;;9.73;8.20;;;;;;;;;;5093246;28;20024;-68
2021/05/30 06:50:32;;;;;;;11.95;8.15;;;;;;;;;;5093237;28;20028;-69
2021/05/30 06:52:59;;;;;;;13.00;8.02;;;;;;;;;;5093166;28;20032;-68
2021/05/30 06:55:25;;;;;;;10.43;7.60;;;;;;;;;;5092734;28;20020;-67
2021/05/30 06:57:51;;;;;;;9.65;7.25;;;;;;;;;;5093091;28;20047;-68
2021/05/30 07:00:18;;;;;;;9.93;7.93;;;;;;;;;;5093564;28;20129;-67
2021/05/30 07:02:44;;;;;;;9.60;8.20;;;;;;;;;;5093002;28;20016;-68
2021/05/30 07:05:11;;;;;;;11.38;8.27;;;;;;;;;;5092963;28;20024;-67
2021/05/30 07:07:37;;;;;;;9.68;7.40;;;;;;;;;;5093056;28;20036;-66
2021/05/30 07:10:04;;;;;;;7.47;6.70;;;;;;;;;;5092758;28;20108;-68
2021/05/30 07:12:30;;;;;;;9.30;7.47;;;;;;;;;;5092688;28;20064;-67
2021/05/30 07:14:59;;;;;;;9.98;7.43;;;;;;;;;;5108415;28;20110;-69
2021/05/30 07:17:25;;;;;;;7.53;6.45;;;;;;;;;;5097365;28;20075;-67
2021/05/30 07:19:53;;;;;;;11.77;6.65;;;;;;;;;;5092691;28;20020;-67
2021/05/30 07:22:19;;;;;;;7.90;6.15;;;;;;;;;;5092638;28;20563;-68
2021/05/30 07:24:45;;;;;;;6.85;6.03;;;;;;;;;;5092679;28;20028;-68
2021/05/30 07:27:11;;;;;;;7.43;6.10;;;;;;;;;;5092653;28;20024;-68
2021/05/30 07:29:37;;;;;;;8.35;6.30;;;;;;;;;;5092631;28;20036;-69
2021/05/30 07:32:04;;;;;;;7.85;6.28;;;;;;;;;;5092587;28;20016;-69
2021/05/30 07:34:30;;;;;;;7.15;5.82;;;;;;;;;;5093235;28;20062;-67
2021/05/30 07:36:56;;;;;;;10.95;7.22;;;;;;;;;;5104503;28;20526;-68
2021/05/30 07:39:22;;;;;;;9.00;5.65;;;;;;;;;;5112885;28;20023;-69
2021/05/30 07:41:48;;;;;;;9.98;5.53;;;;;;;;;;5112817;28;20031;-68
2021/05/30 07:44:15;;;;;;;6.35;5.10;;;;;;;;;;5112824;28;20027;-68
2021/05/30 07:46:41;;;;;;;5.50;5.00;;;;;;;;;;5112920;28;20049;-69
2021/05/30 07:49:07;;;;;;;7.53;5.03;;;;;;;;;;5112747;28;20080;-67
2021/05/30 07:51:33;;;;;;;5.97;5.10;;;;;;;;;;5095861;28;20024;-68
2021/05/30 07:54:00;;;;;;;5.68;4.72;;;;;;;;;;5092379;28;20496;-69
2021/05/30 07:56:26;;;;;;;5.55;4.72;;;;;;;;;;5092338;28;20054;-68
2021/05/30 07:58:52;;;;;;;6.40;4.53;;;;;;;;;;5092315;28;20534;-69
2021/05/30 08:01:18;;;;;;;5.10;4.60;;;;;;;;;;5092265;28;20498;-70
2021/05/30 08:03:44;;;;;;;7.10;4.82;;;;;;;;;;5092643;28;20043;-68
2021/05/30 08:06:10;;;;;;;5.35;4.53;;;;;;;;;;5092370;28;20441;-69
2021/05/30 08:08:36;;;;;;;4.75;4.07;;;;;;;;;;5095583;28;20379;-68
2021/05/30 08:11:03;;;;;;;5.00;4.30;;;;;;;;;;5096187;28;20024;-70
2021/05/30 08:13:29;;;;;;;7.15;4.18;;;;;;;;;;5099664;28;20039;-69
2021/05/30 08:15:55;;;;;;;4.93;3.90;;;;;;;;;;5116519;28;20498;-69
2021/05/30 08:18:22;;;;;;;5.32;4.10;;;;;;;;;;5116470;28;20019;-70
2021/05/30 08:20:48;;;;;;;4.90;3.92;;;;;;;;;;5116291;28;20020;-68
2021/05/30 08:23:14;;;;;;;6.25;3.92;;;;;;;;;;5116311;28;20019;-68
2021/05/30 08:25:40;;;;;;;5.03;4.43;;;;;;;;;;5098202;28;20035;-69
2021/05/30 08:28:09;;;;;;;5.75;3.67;;;;;;;;;;5095923;28;20097;-68
2021/05/30 08:30:36;;;;;;;4.00;3.60;;;;;;;;;;5095834;28;20093;-68
2021/05/30 08:33:02;;;;;;;5.70;3.63;;;;;;;;;;5099898;28;20041;-69
2021/05/30 08:35:28;;;;;;;5.07;4.10;;;;;;;;;;5116107;28;20028;-68
2021/05/30 08:37:54;;;;;;;5.22;3.65;;;;;;;;;;5116000;28;20103;-68
2021/05/30 08:40:20;;;;;;;6.28;3.60;;;;;;;;;;5097712;28;20026;-68
2021/05/30 08:42:47;;;;;;;4.57;3.35;;;;;;;;;;5115376;28;20020;-71
2021/05/30 08:45:14;;;;;;;8.15;4.07;;;;;;;;;;5115974;28;20024;-69
2021/05/30 08:47:40;;;;;;;5.35;4.00;;;;;;;;;;5115782;28;20015;-69
2021/05/30 08:50:07;;;;;;;7.25;3.65;;;;;;;;;;5115679;28;20024;-70
2021/05/30 08:52:34;;;;;;;5.13;3.90;;;;;;;;;;5115898;28;20382;-68
2021/05/30 08:55:00;;;;;;;5.55;4.10;;;;;;;;;;5115751;28;20027;-69
2021/05/30 08:57:27;;;;;;;5.50;3.95;;;;;;;;;;5115716;28;20016;-69
2021/05/30 08:59:54;;;;;;;5.57;4.10;;;;;;;;;;5114837;28;20440;-68
2021/05/30 09:02:20;;;;;;;4.35;3.40;;;;;;;;;;5116048;28;20100;-68
2021/05/30 09:04:51;;;;;;;5.40;3.63;;;;;;;;;;5115670;28;20390;-69
2021/05/30 09:07:18;;;;;;;6.47;4.20;;;;;;;;;;5115521;28;20023;-68
2021/05/30 09:09:48;;;;;;;4.28;3.40;;;;;;;;;;5115465;28;20020;-68
2021/05/30 09:12:20;;;;;;;4.30;3.58;;;;;;;;;;5115346;28;20043;-69
2021/05/30 09:14:50;;;;;;;7.00;3.67;;;;;;;;;;5114254;28;20039;-69
2021/05/30 09:17:17;;;;;;;4.32;3.38;;;;;;;;;;5115322;28;20024;-69
2021/05/30 09:19:48;;;;;;;4.00;3.40;;;;;;;;;;5113649;28;20055;-70
2021/05/30 09:22:27;;;;;;;5.20;3.58;;;;;;;;;;5115295;28;20027;-69
2021/05/30 09:24:59;;;;;;;4.78;3.50;;;;;;;;;;5115417;28;20024;-68
2021/05/30 09:27:27;;;;;;;4.40;3.50;;;;;;;;;;5115179;28;20024;-69
2021/05/30 09:30:12;;;;;;;6.88;3.95;;;;;;;;;;5115437;28;20477;-69
2021/05/30 09:32:57;;;;;;;5.80;3.80;;;;;;;;;;5113967;28;20509;-69
2021/05/30 09:35:23;;;;;;;;;;;;;;;;;;5115332;28;20024;-69
2021/05/30 09:38:14;;;;;;;7.60;4.07;;;;;;;;;;5114876;28;19910;-69
2021/05/30 09:40:41;;;;;;;5.82;4.03;;;;;;;;;;5102926;28;20032;-69
2021/05/30 09:43:10;;;;;;;4.18;3.70;;;;;;;;;;5114717;28;20090;-69
2021/05/30 09:45:37;;;;;;;3.90;3.40;;;;;;;;;;5114850;28;20050;-69
2021/05/30 09:48:04;;;;;;;3.80;3.45;;;;;;;;;;5115092;28;20055;-68
2021/05/30 09:50:33;;;;;;;4.03;3.55;;;;;;;;;;5113982;28;20027;-70
2021/05/30 09:53:03;;;;;;;5.35;3.90;;;;;;;;;;5114949;28;20101;-69
2021/05/30 09:55:33;;;;;;;4.20;3.60;;;;;;;;;;5114461;28;20019;-69
2021/05/30 09:58:19;;;;;;;3.95;3.45;;;;;;;;;;5114517;28;20031;-69
2021/05/30 10:00:57;;;;;;;4.63;3.95;;;;;;;;;;5114492;28;20100;-69
2021/05/30 10:03:24;;;;;;;4.50;3.88;;;;;;;;;;5114289;28;20047;-69
2021/05/30 10:05:50;;;;;;;5.85;4.05;;;;;;;;;;5113552;28;20545;-68
2021/05/30 10:08:17;;;;;;;6.25;4.40;;;;;;;;;;5114263;28;20027;-70
2021/05/30 10:10:43;;;;;;;4.00;3.63;;;;;;;;;;5114217;28;20027;-69
2021/05/30 10:13:10;;;;;;;8.52;5.07;;;;;;;;;;5114017;28;20043;-69
2021/05/30 10:15:37;;;;;;;5.55;3.90;;;;;;;;;;5114090;28;20030;-69
2021/05/30 10:18:08;;;;;;;6.55;4.03;;;;;;;;;;5113979;28;20023;-69
2021/05/30 10:20:37;;;;;;;3.80;3.40;;;;;;;;;;5114189;28;20016;-69
2021/05/30 10:23:04;;;;;;;5.22;3.90;;;;;;;;;;5113197;28;20028;-68
2021/05/30 10:25:31;;;;;;;6.32;4.07;;;;;;;;;;5113922;28;20559;-69
2021/05/30 10:28:07;;;;;;;4.78;3.60;;;;;;;;;;5095601;28;20027;-69
2021/05/30 10:30:33;;;;;;;4.97;3.53;;;;;;;;;;5113451;28;20107;-68
2021/05/30 10:33:10;;;;;;;4.65;4.00;;;;;;;;;;5113338;28;20027;-69
2021/05/30 10:35:36;;;;;;;7.63;4.28;;;;;;;;;;5113540;28;20102;-68
2021/05/30 10:38:02;;;;;;;4.75;3.55;;;;;;;;;;5113632;28;20022;-70
2021/05/30 10:40:33;;;;;;;5.45;3.70;;;;;;;;;;5112989;28;20031;-70
2021/05/30 10:43:09;;;;;;;5.40;3.55;;;;;;;;;;5113622;28;20027;-70
2021/05/30 10:45:35;;;;;;;4.40;3.92;;;;;;;;;;5113485;28;20126;-70
2021/05/30 10:48:04;;;;;;;4.43;3.53;;;;;;;;;;5113721;28;20032;-70
2021/05/30 10:50:38;;;;;;;5.72;3.67;;;;;;;;;;5113333;28;20072;-69
2021/05/30 10:53:05;;;;;;;4.13;3.43;;;;;;;;;;5113412;28;20023;-70
2021/05/30 10:55:31;;;;;;;4.15;3.67;;;;;;;;;;5113256;28;20464;-69
2021/05/30 10:57:58;;;;;;;5.63;3.95;;;;;;;;;;5112639;28;20386;-68
2021/05/30 11:00:24;;;;;;;5.53;3.75;;;;;;;;;;5113027;28;20084;-69
2021/05/30 11:03:03;;;;;;;5.85;4.05;;;;;;;;;;5113145;28;20080;-69
2021/05/30 11:05:46;;;;;;;4.40;4.00;;;;;;;;;;5113174;28;20022;-68
2021/05/30 11:08:30;;;;;;;4.30;3.90;;;;;;;;;;5113144;28;20020;-69
2021/05/30 11:11:12;;;;;;;3.83;3.47;;;;;;;;;;5112796;28;20026;-70
2021/05/30 11:13:56;;;;;;;4.22;3.67;;;;;;;;;;5112023;28;20030;-70
2021/05/30 11:16:22;;;;;;;7.45;3.88;;;;;;;;;;5112926;28;20391;-70
2021/05/30 11:19:00;;;;;;;6.72;4.10;;;;;;;;;;5112991;28;20034;-70
2021/05/30 11:21:42;;;;;;;5.25;3.72;;;;;;;;;;5112975;28;20051;-70
2021/05/30 11:24:09;;;;;;;5.55;3.63;;;;;;;;;;5113316;28;20102;-69
2021/05/30 11:26:35;;;;;;;5.30;3.53;;;;;;;;;;5112944;28;20024;-70
2021/05/30 11:29:02;;;;;;;3.17;2.88;;;;;;;;;;5112701;28;20028;-68
2021/05/30 11:31:28;;;;;;;4.57;3.38;;;;;;;;;;5112045;28;20070;-69
2021/05/30 11:33:58;;;;;;;4.55;3.80;;;;;;;;;;5112703;28;20482;-69
2021/05/30 11:36:24;;;;;;;4.88;3.80;;;;;;;;;;5112792;28;20467;-69
2021/05/30 11:38:52;;;;;;;3.30;3.00;;;;;;;;;;5112797;28;20580;-70
2021/05/30 11:41:20;;;;;;;2.90;2.65;;;;;;;;;;5112989;28;20031;-69
2021/05/30 11:44:13;;;;;;;3.35;2.97;;;;;;;;;;5111977;28;20016;-69
2021/05/30 11:46:58;;;;;;;3.35;2.85;;;;;;;;;;5108851;28;20031;-70
2021/05/30 11:49:27;;;;;;;3.33;2.50;;;;;;;;;;5111978;28;20085;-69
2021/05/30 11:52:01;;;;;;;3.38;2.70;;;;;;;;;;5112704;28;20023;-69
2021/05/30 11:54:29;;;;;;;3.97;3.67;;;;;;;;;;5112723;28;20134;-70
2021/05/30 11:56:56;;;;;;;2.88;2.60;;;;;;;;;;5112858;28;20092;-70
2021/05/30 11:59:29;;;;;;;2.60;2.40;;;;;;;;;;5107299;28;20028;-69
2021/05/30 12:01:55;;;;;;;3.42;2.50;;;;;;;;;;5095878;28;20016;-69
2021/05/30 12:04:21;;;;;;;3.35;2.67;;;;;;;;;;5099922;28;20478;-70
2021/05/30 12:06:51;;;;;;;4.88;2.67;;;;;;;;;;5108238;28;20432;-70
2021/05/30 12:09:17;;;;;;;4.75;2.95;;;;;;;;;;5096426;28;20024;-69
2021/05/30 12:11:43;;;;;;;4.28;3.10;;;;;;;;;;5097082;28;20048;-68
2021/05/30 12:14:10;;;;;;;4.13;2.80;;;;;;;;;;5104338;28;20479;-68
2021/05/30 12:16:36;;;;;;;3.65;3.00;;;;;;;;;;5100358;28;20413;-68
2021/05/30 12:19:03;;;;;;;6.60;3.30;;;;;;;;;;5100659;28;20408;-68
2021/05/30 12:21:42;;;;;;;4.75;3.03;;;;;;;;;;5098884;28;20025;-69
2021/05/30 12:24:08;;;;;;;4.13;3.50;;;;;;;;;;5095856;28;20032;-69
2021/05/30 12:26:35;;;;;;;3.30;3.00;;;;;;;;;;5102153;28;20032;-69
2021/05/30 12:29:01;;;;;;;5.15;3.30;;;;;;;;;;5096059;28;20062;-69
2021/05/30 12:31:28;;;;;;;3.33;3.00;;;;;;;;;;5093375;28;20024;-69
2021/05/30 12:33:58;;;;;;;3.38;3.08;;;;;;;;;;5106458;28;20028;-67
2021/05/30 12:36:30;;;;;;;4.75;3.70;;;;;;;;;;5095326;28;20070;-69
2021/05/30 12:39:02;;;;;;;5.35;4.55;;;;;;;;;;5099559;28;20047;-69
2021/05/30 12:41:33;;;;;;;6.60;4.88;;;;;;;;;;5091829;28;20028;-70
2021/05/30 12:44:05;;;;;;;5.20;2.83;;;;;;;;;;5111289;28;20026;-69
2021/05/30 12:46:31;;;;;;;5.57;5.07;;;;;;;;;;5082276;28;20446;-69
2021/05/30 12:48:57;;;;;;;5.78;5.10;;;;;;;;;;5103201;28;20035;-68
2021/05/30 12:51:29;;;;;;;6.35;5.43;;;;;;;;;;5106853;28;20024;-69
2021/05/30 12:53:55;;;;;;;7.95;5.30;;;;;;;;;;5112245;28;20027;-69
2021/05/30 12:56:26;;;;;;;5.95;3.67;;;;;;;;;;5096339;28;20374;-69
2021/05/30 12:59:11;;;;;;;3.67;3.08;;;;;;;;;;5115636;28;20012;-69
2021/05/30 13:01:38;;;;;;;6.32;4.82;;;;;;;;;;5110478;28;20103;-69
2021/05/30 13:04:22;;;;;;;5.95;4.80;;;;;;;;;;5100413;28;20032;-69
2021/05/30 13:07:12;;;;;;;6.25;5.40;;;;;;;;;;5096998;28;20032;-68
2021/05/30 13:09:43;;;;;;;5.72;5.18;;;;;;;;;;5092107;28;20043;-70
2021/05/30 13:12:27;;;;;;;6.47;4.57;;;;;;;;;;5095236;28;20122;-70
2021/05/30 13:15:30;;;;;;;5.97;4.70;;;;;;;;;;5112416;28;20031;-67
2021/05/30 13:17:59;;;;;;;6.95;4.53;;;;;;;;;;5012468;28;20058;-68
2021/05/30 13:20:26;;;;;;;5.63;4.47;;;;;;;;;;5084721;28;20118;-68
2021/05/30 13:22:56;;;;;;;5.10;4.10;;;;;;;;;;5106997;28;20054;-69
2021/05/30 13:25:39;;;;;;;4.88;4.38;;;;;;;;;;5095181;28;20028;-69
2021/05/30 13:28:21;;;;;;;5.53;5.03;;;;;;;;;;5102400;28;20016;-71
2021/05/30 13:30:52;;;;;;;5.03;4.50;;;;;;;;;;5101846;28;20051;-70
2021/05/30 13:33:18;;;;;;;5.03;4.15;;;;;;;;;;5106374;28;20394;-71
2021/05/30 13:35:45;;;;;;;4.13;3.72;;;;;;;;;;5111461;28;20030;-70
2021/05/30 13:38:11;;;;;;;4.72;4.20;;;;;;;;;;5103096;28;20043;-70
2021/05/30 13:40:39;;;;;;;4.93;3.97;;;;;;;;;;5094344;28;20497;-70
2021/05/30 13:43:05;;;;;;;4.90;4.45;;;;;;;;;;5094567;28;20050;-71
2021/05/30 13:45:31;;;;;;;4.82;4.32;;;;;;;;;;5101578;28;20063;-70
2021/05/30 13:47:58;;;;;;;6.15;4.20;;;;;;;;;;5094896;28;20024;-70
2021/05/30 13:50:24;;;;;;;3.92;2.58;;;;;;;;;;5101927;28;20042;-70
2021/05/30 13:52:50;;;;;;;3.20;2.90;;;;;;;;;;5097916;28;20077;-70
2021/05/30 13:55:16;;;;;;;3.28;2.75;;;;;;;;;;5108740;28;20035;-69
2021/05/30 13:57:43;;;;;;;2.60;2.35;;;;;;;;;;5097523;28;20024;-70
2021/05/30 14:00:09;;;;;;;3.65;2.60;;;;;;;;;;5094034;28;20487;-69
2021/05/30 14:02:35;;;;;;;3.80;2.80;;;;;;;;;;5105193;28;20051;-70
2021/05/30 14:05:02;;;;;;;3.08;2.47;;;;;;;;;;5106585;28;20094;-69
2021/05/30 14:07:28;;;;;;;3.65;2.85;;;;;;;;;;5114379;28;20032;-69
2021/05/30 14:09:54;;;;;;;2.90;2.60;;;;;;;;;;5109297;28;20375;-69
2021/05/30 14:12:20;;;;;;;2.65;2.42;;;;;;;;;;5114132;28;20091;-70
2021/05/30 14:14:46;;;;;;;3.03;2.72;;;;;;;;;;5113983;28;20034;-69
2021/05/30 14:17:12;;;;;;;4.10;3.50;;;;;;;;;;5114290;28;20038;-68
2021/05/30 14:19:38;;;;;;;4.05;3.28;;;;;;;;;;5114071;28;20224;-70
2021/05/30 14:22:05;;;;;;;3.40;2.80;;;;;;;;;;5101409;28;20024;-69
2021/05/30 14:24:31;;;;;;;3.20;2.90;;;;;;;;;;5093576;28;20024;-69
2021/05/30 14:26:58;;;;;;;3.92;3.33;;;;;;;;;;5093626;28;20073;-69
2021/05/30 14:29:24;;;;;;;3.33;2.83;;;;;;;;;;5093534;28;20022;-69
2021/05/30 14:31:50;;;;;;;4.60;3.15;;;;;;;;;;5093592;28;20409;-69
2021/05/30 14:34:16;;;;;;;3.30;2.90;;;;;;;;;;5121298;27;20029;-70
2021/05/30 14:36:42;;;;;;;2.65;2.45;;;;;;;;;;5134281;27;20023;-69
2021/05/30 14:39:08;;;;;;;3.33;2.83;;;;;;;;;;5119658;27;20034;-69